Time;durP1;ratioP1;P1;durP2;ratioP2;P2;SDS_P1;SDS_P2;PMS_P1;PMS_P2;Temp;Humidity;BMP_temperature;BMP_pressure;BME280_temperature;BME280_humidity;BME280_pressure;Samples;Min_cycle;Max_cycle;Signal;HPM_P1;HPM_P2
2022/12/26 00:01:07;;;;;;;24.48;21.27;;;;;;;10.35;87.04;100927.63;5049810;28;20032;-67
2022/12/26 00:03:32;;;;;;;26.95;22.50;;;;;;;10.35;86.86;100934.00;5052364;28;20471;-68
2022/12/26 00:05:58;;;;;;;26.63;22.08;;;;;;;10.37;86.90;100939.28;5049875;28;20109;-68
2022/12/26 00:08:23;;;;;;;24.23;21.33;;;;;;;10.35;87.09;100924.84;5051885;28;20033;-68
2022/12/26 00:10:48;;;;;;;24.83;21.02;;;;;;;10.37;86.87;100933.75;5050173;28;20476;-68
2022/12/26 00:13:14;;;;;;;26.17;21.77;;;;;;;10.35;87.06;100931.22;5049222;28;20032;-68
2022/12/26 00:15:40;;;;;;;25.23;22.33;;;;;;;10.36;87.03;100930.13;5049694;28;20060;-67
2022/12/26 00:18:05;;;;;;;26.25;21.02;;;;;;;10.36;86.97;100932.91;5051731;28;20029;-67
2022/12/26 00:20:31;;;;;;;27.73;22.77;;;;;;;10.38;86.97;100943.78;5051638;28;20033;-67
2022/12/26 00:22:56;;;;;;;27.10;23.40;;;;;;;10.38;86.92;100944.63;5049560;28;20418;-67
2022/12/26 00:25:21;;;;;;;27.17;23.75;;;;;;;10.38;87.09;100966.81;5041178;28;20736;-68
2022/12/26 00:27:47;;;;;;;30.52;24.08;;;;;;;10.38;86.95;100954.88;5044968;28;20123;-68
2022/12/26 00:30:12;;;;;;;31.10;24.85;;;;;;;10.37;86.92;100962.31;5040196;28;20034;-68
2022/12/26 00:32:37;;;;;;;28.35;23.73;;;;;;;10.38;87.07;100966.81;5047152;28;20025;-68
2022/12/26 00:35:03;;;;;;;31.02;25.80;;;;;;;10.39;86.94;100967.66;5052290;28;20037;-67
2022/12/26 00:37:28;;;;;;;29.40;25.52;;;;;;;10.39;87.14;100964.88;5040474;28;20102;-67
2022/12/26 00:39:53;;;;;;;29.20;24.30;;;;;;;10.39;87.01;100978.75;5051401;28;20029;-68
2022/12/26 00:42:19;;;;;;;32.28;25.45;;;;;;;10.38;86.81;100966.81;5049586;28;20099;-67
2022/12/26 00:44:44;;;;;;;31.70;24.80;;;;;;;10.39;86.81;100962.09;5050114;28;20098;-67
2022/12/26 00:47:09;;;;;;;31.70;25.85;;;;;;;10.39;86.88;100964.88;5043619;28;20472;-67
2022/12/26 00:49:34;;;;;;;29.05;24.15;;;;;;;10.39;86.66;100965.72;5050419;28;20057;-67
2022/12/26 00:52:00;;;;;;;29.38;25.90;;;;;;;10.39;86.52;100973.19;5049201;28;20073;-67
2022/12/26 00:54:25;;;;;;;27.75;23.42;;;;;;;10.38;86.48;100975.13;5052105;28;20047;-67
2022/12/26 00:56:50;;;;;;;27.73;23.83;;;;;;;10.37;86.04;100976.19;5049476;28;20094;-67
2022/12/26 00:59:16;;;;;;;27.77;23.52;;;;;;;10.38;86.64;100977.91;5050612;28;20040;-67
2022/12/26 01:01:41;;;;;;;29.65;23.88;;;;;;;10.38;86.51;100975.13;5048204;28;20025;-67
2022/12/26 01:04:06;;;;;;;30.42;24.23;;;;;;;10.39;86.47;100987.91;5048887;28;20539;-68
2022/12/26 01:06:32;;;;;;;27.63;24.40;;;;;;;10.38;86.51;100961.25;5049592;28;20543;-67
2022/12/26 01:08:58;;;;;;;29.30;25.25;;;;;;;10.35;86.71;100967.31;5050825;28;20033;-68
2022/12/26 01:11:39;;;;;;;31.48;25.02;;;;;;;10.33;86.78;100977.78;5049889;28;20135;-67
2022/12/26 01:14:11;;;;;;;31.77;25.55;;;;;;;10.36;86.38;100996.72;5049738;28;20033;-67
2022/12/26 01:16:38;;;;;;;29.05;25.48;;;;;;;10.37;86.44;100992.84;5047809;28;20082;-68
2022/12/26 01:19:04;;;;;;;30.30;26.02;;;;;;;10.36;86.21;101005.03;5051014;28;20079;-67
2022/12/26 01:21:29;;;;;;;31.73;26.52;;;;;;;10.34;86.01;100998.91;5049258;28;20025;-67
2022/12/26 01:23:55;;;;;;;32.60;27.02;;;;;;;10.33;86.34;100991.66;5049406;28;20047;-68
2022/12/26 01:26:20;;;;;;;32.63;26.60;;;;;;;10.36;86.25;100979.25;5048870;28;20114;-68
2022/12/26 01:28:47;;;;;;;33.45;27.65;;;;;;;10.36;86.08;100982.84;5051269;28;20056;-68
2022/12/26 01:31:12;;;;;;;33.90;28.15;;;;;;;10.35;86.10;100978.41;5049665;28;20136;-67
2022/12/26 01:33:38;;;;;;;33.55;28.02;;;;;;;10.37;86.08;100987.31;5046954;28;20040;-68
2022/12/26 01:36:03;;;;;;;30.90;26.73;;;;;;;10.37;86.16;100986.47;5050018;28;20036;-68
2022/12/26 01:38:28;;;;;;;30.13;25.60;;;;;;;10.36;85.68;100993.94;5035986;28;20124;-68
2022/12/26 01:43:59;;;;;;;29.70;24.77;;;;;;;10.36;85.70;100979.25;5051203;28;20379;-67
2022/12/26 01:46:41;;;;;;;27.15;24.00;;;;;;;10.33;86.11;100988.88;5047773;28;20103;-67
2022/12/26 01:49:29;;;;;;;26.03;22.77;;;;;;;10.32;85.90;100995.53;5050311;28;20025;-67
2022/12/26 01:52:02;;;;;;;24.80;21.23;;;;;;;10.30;85.77;100992.19;5047848;28;20033;-68
2022/12/26 01:54:33;;;;;;;23.77;21.17;;;;;;;10.28;85.72;100988.81;5046115;28;20040;-68
2022/12/26 01:57:01;;;;;;;23.45;20.08;;;;;;;10.30;85.61;100986.63;5046987;28;20047;-68
2022/12/26 01:59:31;;;;;;;21.88;19.52;;;;;;;10.27;85.47;100987.13;5049937;28;20112;-68
2022/12/26 02:01:58;;;;;;;22.65;20.05;;;;;;;10.25;85.38;100994.84;5041778;28;20380;-67
2022/12/26 02:07:16;;;;;;;20.33;18.15;;;;;;;10.27;85.16;100989.91;5047191;28;20060;-67
2022/12/26 02:09:42;;;;;;;19.88;17.88;;;;;;;10.22;84.86;100985.06;5045847;28;20480;-67
2022/12/26 02:12:18;;;;;;;19.55;17.05;;;;;;;10.24;85.35;101005.06;5046714;28;20033;-67
2022/12/26 02:14:44;;;;;;;19.02;17.10;;;;;;;10.24;85.26;100998.69;5048406;28;20479;-68
2022/12/26 02:17:10;;;;;;;19.13;16.80;;;;;;;10.22;85.13;101001.72;5049691;28;20033;-68
2022/12/26 02:20:04;;;;;;;17.77;15.85;;;;;;;10.24;85.39;100998.69;5047543;28;20036;-68
2022/12/26 02:23:19;;;;;;;17.70;15.80;;;;;;;10.25;85.44;101001.22;5044287;28;20029;-68
2022/12/26 02:26:04;;;;;;;18.70;15.00;;;;;;;10.24;85.41;100998.69;5047610;28;20033;-68
2022/12/26 02:28:48;;;;;;;17.40;14.90;;;;;;;10.26;85.26;101002.09;5048152;28;20110;-68
2022/12/26 02:31:34;;;;;;;16.60;14.90;;;;;;;10.26;85.38;100994.59;5037132;28;20064;-68
2022/12/26 02:34:18;;;;;;;16.35;14.65;;;;;;;10.26;85.06;100996.53;5031701;28;20041;-67
2022/12/26 02:37:01;;;;;;;15.70;14.13;;;;;;;10.27;85.25;100995.44;5045665;28;20107;-68
2022/12/26 02:39:50;;;;;;;16.55;14.85;;;;;;;10.28;85.29;101000.72;5046890;28;20036;-68
2022/12/26 02:42:43;;;;;;;15.65;14.02;;;;;;;10.24;85.25;101001.44;5037874;28;20136;-68
2022/12/26 02:48:39;;;;;;;18.33;14.93;;;;;;;10.30;85.13;101022.69;5032690;28;20107;-68
2022/12/26 03:14:31;;;;;;;11.27;10.18;;;;;;;10.19;85.06;101004.13;5050851;28;20094;-68
2022/12/26 03:17:18;;;;;;;12.90;10.60;;;;;;;10.14;84.63;101010.44;5052361;28;20044;-67
2022/12/26 03:20:00;;;;;;;10.75;9.75;;;;;;;10.16;84.65;101012.94;5049592;28;20132;-69
2022/12/26 03:22:40;;;;;;;10.48;9.48;;;;;;;10.18;84.70;101016.28;5050638;28;20502;-69
2022/12/26 03:28:06;;;;;;;10.52;9.52;;;;;;;10.19;84.42;100993.88;5050429;28;20502;-68
2022/12/26 03:30:49;;;;;;;11.07;9.27;;;;;;;10.21;84.70;100990.84;5046581;28;20115;-68
2022/12/26 03:36:31;;;;;;;9.70;8.70;;;;;;;10.21;84.43;100988.91;5051268;28;20036;-69
2022/12/26 04:20:54;;;;;;;8.32;7.53;;;;;;;10.13;83.55;101042.00;5052068;28;20079;-69
2022/12/26 04:46:33;;;;;;;7.63;6.82;;;;;;;9.98;83.24;101013.94;5051208;28;20079;-68
2022/12/26 04:51:46;;;;;;;8.13;7.32;;;;;;;10.01;83.07;101005.97;5041999;28;20052;-68
2022/12/26 04:54:11;;;;;;;8.80;7.90;;;;;;;9.94;82.96;101009.97;5043912;28;20037;-68
2022/12/26 04:56:36;;;;;;;8.55;7.70;;;;;;;9.95;83.30;101001.44;5052354;28;20037;-68
2022/12/26 04:59:02;;;;;;;8.60;7.70;;;;;;;9.94;82.94;100997.00;5050662;28;20750;-68
2022/12/26 05:09:44;;;;;;;8.95;8.05;;;;;;;9.98;82.75;101009.28;5041944;28;20111;-69
2022/12/26 05:12:09;;;;;;;9.07;8.18;;;;;;;9.92;82.56;101018.56;5049072;28;20033;-68
2022/12/26 05:14:36;;;;;;;8.82;7.80;;;;;;;9.95;82.63;101022.78;5051231;28;20033;-69
2022/12/26 05:30:55;;;;;;;8.50;7.60;;;;;;;9.94;82.46;101037.72;5049421;28;20502;-68
2022/12/26 05:36:05;;;;;;;8.43;7.55;;;;;;;9.85;82.61;101012.28;5049021;28;20048;-68
2022/12/26 05:38:30;;;;;;;9.77;7.28;;;;;;;9.88;82.58;101011.81;5049023;28;20431;-69
2022/12/26 05:40:56;;;;;;;9.15;7.65;;;;;;;9.90;82.72;101006.84;5047478;28;20033;-69
2022/12/26 05:43:21;;;;;;;9.18;7.38;;;;;;;9.91;82.58;101005.78;5049461;28;20100;-69
2022/12/26 05:45:46;;;;;;;10.13;7.15;;;;;;;9.90;82.63;101004.09;5047690;28;20037;-68
2022/12/26 05:48:12;;;;;;;8.02;7.05;;;;;;;9.92;82.59;100992.75;5048226;28;20029;-69
2022/12/26 05:50:37;;;;;;;7.82;7.03;;;;;;;9.92;82.50;100990.84;5048450;28;20095;-69
2022/12/26 05:53:02;;;;;;;8.10;7.10;;;;;;;9.93;82.21;100986.13;5049131;28;20064;-68
2022/12/26 05:55:28;;;;;;;10.52;6.75;;;;;;;9.94;82.34;100988.66;5049445;28;20025;-69
2022/12/26 05:57:54;;;;;;;6.90;6.22;;;;;;;9.93;82.25;100994.44;5049814;28;20112;-69
2022/12/26 06:00:20;;;;;;;7.18;6.47;;;;;;;9.93;82.26;100992.50;5044220;28;20123;-68
2022/12/26 06:02:45;;;;;;;7.35;6.45;;;;;;;9.92;82.21;100988.06;5039924;28;20033;-68
2022/12/26 06:05:10;;;;;;;8.07;6.13;;;;;;;9.92;82.12;100999.16;5030879;28;20033;-70
2022/12/26 06:07:36;;;;;;;9.77;6.43;;;;;;;9.92;82.09;101007.47;5045985;28;20195;-69
2022/12/26 06:10:01;;;;;;;7.43;6.55;;;;;;;9.87;82.10;101015.69;5048441;28;20095;-70
2022/12/26 06:12:26;;;;;;;6.97;6.28;;;;;;;9.93;82.36;101025.78;5048236;28;20472;-69
2022/12/26 06:14:52;;;;;;;7.32;6.10;;;;;;;9.90;82.23;101012.41;5049836;28;20033;-69
2022/12/26 06:17:17;;;;;;;6.68;5.97;;;;;;;9.91;82.46;101025.19;5047403;28;20115;-68
2022/12/26 06:19:42;;;;;;;5.90;5.30;;;;;;;9.90;82.44;101031.81;5042035;28;20033;-69
2022/12/26 06:22:07;;;;;;;6.95;5.28;;;;;;;9.89;82.59;101038.44;5047155;28;20146;-69
2022/12/26 06:24:33;;;;;;;7.05;5.35;;;;;;;9.88;82.09;101031.22;5048192;28;20112;-69
2022/12/26 06:26:58;;;;;;;6.10;5.50;;;;;;;9.90;82.35;101042.91;5049405;28;20518;-68
2022/12/26 06:29:23;;;;;;;5.90;5.30;;;;;;;9.92;82.45;101040.75;5047680;28;20039;-68
2022/12/26 06:31:49;;;;;;;6.32;4.95;;;;;;;9.94;82.01;101048.81;5048444;28;20032;-69
2022/12/26 06:34:14;;;;;;;6.32;5.30;;;;;;;9.92;82.23;101051.81;5050018;28;20033;-69
2022/12/26 06:36:39;;;;;;;5.60;4.90;;;;;;;9.94;82.16;101058.00;5049434;28;20442;-68
2022/12/26 06:39:05;;;;;;;6.38;5.35;;;;;;;9.94;82.10;101058.00;5040192;28;20095;-69
2022/12/26 06:41:30;;;;;;;5.28;4.78;;;;;;;9.92;81.90;101062.91;5030189;28;20500;-69
2022/12/26 06:43:55;;;;;;;5.35;4.60;;;;;;;9.92;82.00;101056.53;5047342;28;20040;-70
2022/12/26 06:46:23;;;;;;;5.35;4.82;;;;;;;9.94;81.99;101059.88;5049761;28;20052;-69
2022/12/26 06:48:49;;;;;;;5.53;4.70;;;;;;;9.85;81.81;101053.88;5047433;28;20025;-69
2022/12/26 06:51:21;;;;;;;5.60;4.88;;;;;;;9.89;81.81;101062.56;5044693;28;20037;-69
2022/12/26 06:53:47;;;;;;;5.82;4.95;;;;;;;9.91;81.56;101061.25;5042475;28;20033;-69
2022/12/26 06:56:16;;;;;;;5.95;4.65;;;;;;;9.89;81.48;101045.94;5031377;28;20037;-69
2022/12/26 06:58:41;;;;;;;5.72;4.30;;;;;;;9.89;81.56;101051.47;5037383;28;20130;-69
2022/12/26 07:01:09;;;;;;;5.82;4.50;;;;;;;9.89;81.39;101057.00;5045707;28;20776;-69
2022/12/26 07:03:35;;;;;;;5.45;4.35;;;;;;;9.87;81.28;101046.19;5047225;28;20032;-69
2022/12/26 07:06:06;;;;;;;5.75;4.00;;;;;;;9.87;81.30;101045.34;5049413;28;20029;-69
2022/12/26 07:08:32;;;;;;;5.45;3.80;;;;;;;9.87;81.36;101040.63;5046718;28;20025;-70
2022/12/26 07:10:58;;;;;;;5.70;4.40;;;;;;;9.90;80.85;101042.91;5041142;28;20073;-69
2022/12/26 07:13:23;;;;;;;5.47;4.25;;;;;;;9.90;80.73;101054.00;5049104;28;20120;-69
2022/12/26 07:15:48;;;;;;;5.10;3.75;;;;;;;9.87;80.63;101051.72;5046780;28;20392;-69
2022/12/26 07:18:14;;;;;;;5.32;3.78;;;;;;;9.89;80.78;101057.84;5047116;28;20044;-69
2022/12/26 07:20:39;;;;;;;7.03;3.90;;;;;;;9.90;80.68;101053.16;5044319;28;20135;-69
2022/12/26 07:23:04;;;;;;;5.88;4.00;;;;;;;9.87;80.47;101065.59;5048490;28;20036;-69
2022/12/26 07:25:30;;;;;;;4.70;3.50;;;;;;;9.90;80.58;101053.16;5044951;28;20116;-69
2022/12/26 07:27:55;;;;;;;4.93;3.58;;;;;;;9.88;80.48;101056.19;5039551;28;20480;-69
2022/12/26 07:30:20;;;;;;;4.22;3.42;;;;;;;9.88;80.45;101064.50;5036310;28;20052;-69
2022/12/26 07:32:46;;;;;;;4.70;3.42;;;;;;;9.85;80.37;101059.44;5046698;28;20033;-69
2022/12/26 07:35:11;;;;;;;6.50;3.65;;;;;;;9.87;80.37;101051.72;5045313;28;20041;-69
2022/12/26 07:37:36;;;;;;;7.43;4.10;;;;;;;9.87;80.29;101064.75;5046412;28;20124;-70
2022/12/26 07:40:02;;;;;;;5.00;3.38;;;;;;;9.85;80.12;101067.75;5046854;28;20064;-69
2022/12/26 07:42:27;;;;;;;5.60;3.78;;;;;;;9.86;80.28;101080.50;5045251;28;20039;-69
2022/12/26 07:44:53;;;;;;;6.47;3.90;;;;;;;9.82;80.37;101074.63;5042620;28;20029;-69
2022/12/26 07:47:18;;;;;;;7.53;3.58;;;;;;;9.84;80.48;101074.38;5040813;28;20037;-69
2022/12/26 07:49:43;;;;;;;6.30;3.72;;;;;;;9.84;80.36;101063.28;5036952;28;20041;-70
2022/12/26 07:52:09;;;;;;;4.80;3.53;;;;;;;9.86;80.38;101063.88;5043630;28;20048;-67
2022/12/26 07:54:34;;;;;;;6.65;3.53;;;;;;;9.82;80.26;101073.78;5044992;28;20036;-71
2022/12/26 07:56:59;;;;;;;5.35;3.80;;;;;;;9.77;80.18;101065.34;5047819;28;20471;-71
2022/12/26 07:59:25;;;;;;;8.07;6.20;;;;;;;9.77;80.31;101079.22;5047528;28;20035;-72
2022/12/26 08:01:50;;;;;;;7.30;4.10;;;;;;;9.78;80.40;101080.88;5041780;28;20055;-70
2022/12/26 08:04:16;;;;;;;6.03;4.15;;;;;;;9.78;80.35;101083.66;5035669;28;20041;-71
2022/12/26 08:06:41;;;;;;;4.45;3.70;;;;;;;9.80;80.47;101084.28;5048717;28;20474;-70
2022/12/26 08:09:06;;;;;;;4.47;3.85;;;;;;;9.81;80.06;101083.19;5049477;28;20040;-70
2022/12/26 08:11:33;;;;;;;4.75;3.53;;;;;;;9.77;80.00;101087.53;5048594;28;20468;-67
2022/12/26 08:13:59;;;;;;;6.22;3.58;;;;;;;9.75;80.22;101081.41;5046757;28;20094;-75
2022/12/26 08:16:24;;;;;;;8.82;3.60;;;;;;;9.78;80.16;101083.66;5048494;28;20087;-70
2022/12/26 08:18:50;;;;;;;10.30;3.97;;;;;;;9.70;79.94;101084.88;5046928;28;20032;-73
2022/12/26 08:21:15;;;;;;;10.82;3.97;;;;;;;9.75;80.11;101089.72;5048239;28;20679;-74
2022/12/26 08:23:40;;;;;;;6.65;3.78;;;;;;;9.77;79.90;101090.28;5044269;28;20544;-70
2022/12/26 08:26:09;;;;;;;5.35;3.70;;;;;;;9.81;80.13;101080.41;5050105;28;20033;-69
2022/12/26 08:28:34;;;;;;;8.95;3.83;;;;;;;9.83;80.01;101086.56;5049901;28;20139;-70
2022/12/26 08:31:03;;;;;;;6.40;3.70;;;;;;;9.86;80.11;101091.59;5049511;28;20133;-72
2022/12/26 08:33:28;;;;;;;7.25;3.53;;;;;;;9.88;80.03;101091.38;5049442;28;20140;-71
2022/12/26 08:35:54;;;;;;;6.78;3.40;;;;;;;9.86;79.64;101085.22;5052277;28;20116;-72
2022/12/26 08:38:19;;;;;;;5.85;3.80;;;;;;;9.86;79.77;101085.22;5047579;28;20059;-71
2022/12/26 08:40:52;;;;;;;4.95;3.88;;;;;;;9.88;79.94;101088.59;5049848;28;20071;-72
2022/12/26 08:43:17;;;;;;;3.85;3.55;;;;;;;9.93;80.04;101108.13;5047872;28;20129;-72
2022/12/26 08:45:48;;;;;;;6.80;3.97;;;;;;;9.91;80.00;101105.59;5043649;28;20108;-73
2022/12/26 08:48:14;;;;;;;4.68;3.40;;;;;;;9.92;80.06;101107.28;5047753;28;20035;-73
2022/12/26 08:50:39;;;;;;;4.05;3.40;;;;;;;9.93;80.03;101106.19;5049772;28;20124;-73
2022/12/26 08:53:04;;;;;;;4.70;3.60;;;;;;;9.97;80.11;101121.25;5051897;28;20377;-73
2022/12/26 08:55:29;;;;;;;6.15;3.20;;;;;;;9.98;80.14;101117.41;5053813;28;20029;-73
2022/12/26 08:57:55;;;;;;;6.13;3.28;;;;;;;10.02;79.93;101128.84;5052008;28;20510;-73
2022/12/26 09:00:22;;;;;;;6.20;3.30;;;;;;;10.00;80.27;101120.78;5051021;28;20029;-74
2022/12/26 09:02:50;;;;;;;5.38;3.17;;;;;;;10.05;80.05;101129.19;5051003;28;20060;-73
2022/12/26 09:05:15;;;;;;;5.68;3.65;;;;;;;10.05;80.01;101122.81;5051255;28;20040;-74
2022/12/26 09:07:41;;;;;;;9.95;2.65;;;;;;;10.00;79.98;101134.63;5052345;28;20017;-72
2022/12/26 09:10:06;;;;;;;5.03;2.42;;;;;;;10.00;80.21;101139.34;5041015;28;20033;-73
2022/12/26 09:12:31;;;;;;;6.28;2.63;;;;;;;10.03;79.88;101131.38;5047399;28;20392;-72
2022/12/26 09:14:57;;;;;;;5.40;2.20;;;;;;;10.06;80.35;101133.69;5050519;28;20033;-75
2022/12/26 09:17:26;;;;;;;4.18;2.38;;;;;;;10.08;80.09;101130.66;5044884;28;20025;-74
2022/12/26 09:19:52;;;;;;;4.28;2.30;;;;;;;10.13;80.02;101136.31;5047073;28;20029;-70
2022/12/26 09:25:01;;;;;;;3.15;2.20;;;;;;;10.15;79.58;101142.47;5045720;28;20182;-66
2022/12/26 09:27:28;;;;;;;11.10;2.13;;;;;;;10.15;79.53;101138.84;5048566;28;20406;-68
2022/12/26 09:29:53;;;;;;;5.18;1.98;;;;;;;10.21;79.80;101137.88;5050647;28;20043;-70
2022/12/26 09:32:18;;;;;;;4.88;1.90;;;;;;;10.23;79.55;101149.56;5050860;28;20025;-70
2022/12/26 09:34:44;;;;;;;4.20;2.30;;;;;;;10.17;79.46;101156.91;5047495;28;20132;-68
2022/12/26 09:37:12;;;;;;;6.25;2.00;;;;;;;10.18;79.73;101172.50;5051999;28;20032;-70
2022/12/26 09:39:40;;;;;;;6.57;2.10;;;;;;;10.21;79.36;101160.06;5051176;28;20081;-70
2022/12/26 09:42:39;;;;;;;4.25;2.00;;;;;;;10.28;79.82;101169.97;5050368;28;20067;-70
2022/12/26 09:45:15;;;;;;;7.80;2.75;;;;;;;10.24;79.18;101177.06;5051398;28;20040;-70
2022/12/26 09:48:00;;;;;;;5.70;1.83;;;;;;;10.25;79.55;101169.63;5051426;28;20101;-71
2022/12/26 09:50:32;;;;;;;5.13;2.00;;;;;;;10.27;79.34;101175.78;5046264;28;20132;-68
2022/12/26 09:53:02;;;;;;;7.60;2.08;;;;;;;10.22;78.96;101192.28;5049600;28;20063;-68
2022/12/26 09:55:33;;;;;;;4.32;1.95;;;;;;;10.24;79.08;101192.88;5044379;28;20017;-69
2022/12/26 09:58:03;;;;;;;5.40;1.80;;;;;;;10.24;79.33;101195.66;5048154;28;20484;-70
2022/12/26 10:00:37;;;;;;;6.47;2.97;;;;;;;10.25;79.13;101200.13;5051300;28;20064;-70
2022/12/26 10:03:03;;;;;;;7.95;2.38;;;;;;;10.23;78.74;101207.84;5051697;28;20390;-70
2022/12/26 10:05:37;;;;;;;5.55;2.60;;;;;;;10.26;79.14;101210.16;5050898;28;20029;-70
2022/12/26 10:08:33;;;;;;;10.73;3.90;;;;;;;10.28;79.21;101194.09;5045445;28;20040;-70
2022/12/26 10:11:01;;;;;;;7.60;2.50;;;;;;;10.28;78.86;101207.97;5051107;28;20074;-70
2022/12/26 10:13:39;;;;;;;6.60;1.95;;;;;;;10.22;78.45;101207.00;5050527;28;20040;-71
2022/12/26 10:16:15;;;;;;;7.95;2.10;;;;;;;10.22;78.70;101212.53;5051325;28;20036;-70
2022/12/26 10:19:04;;;;;;;7.60;2.38;;;;;;;10.26;79.21;101219.31;5038691;28;20091;-71
2022/12/26 10:21:43;;;;;;;7.45;2.17;;;;;;;10.27;78.80;101222.94;5050720;28;20032;-69
2022/12/26 10:24:17;;;;;;;8.45;2.40;;;;;;;10.25;78.61;101220.38;5042028;28;20109;-69
2022/12/26 10:26:54;;;;;;;9.20;2.58;;;;;;;10.27;78.83;101218.22;5045014;28;20040;-67
2022/12/26 10:29:26;;;;;;;5.88;2.72;;;;;;;10.28;78.65;101222.69;5047860;28;20040;-69
2022/12/26 10:32:01;;;;;;;6.57;3.20;;;;;;;10.29;78.64;101220.75;5048080;28;20530;-69
2022/12/26 10:34:35;;;;;;;5.05;3.28;;;;;;;10.26;78.17;101226.81;5050878;28;20037;-70
2022/12/26 10:37:01;;;;;;;10.27;2.40;;;;;;;10.23;79.07;101263.31;5050989;28;20045;-69
2022/12/26 10:39:34;;;;;;;5.63;2.28;;;;;;;10.16;78.33;101274.53;5049160;28;20365;-69
2022/12/26 10:42:10;;;;;;;5.65;1.90;;;;;;;10.12;78.34;101283.56;5044862;28;20527;-70
2022/12/26 10:44:35;;;;;;;3.65;1.48;;;;;;;10.07;77.22;101287.06;5049785;28;20068;-69
2022/12/26 10:47:18;;;;;;;7.15;1.52;;;;;;;10.07;77.92;101293.44;5044417;28;20060;-68
2022/12/26 10:49:45;;;;;;;6.07;1.55;;;;;;;10.03;77.38;101295.00;5050137;28;20545;-68
2022/12/26 10:52:12;;;;;;;6.05;1.50;;;;;;;10.04;77.73;101293.09;5048847;28;20033;-70
2022/12/26 10:54:38;;;;;;;3.97;1.50;;;;;;;10.03;77.42;101302.50;5048804;28;20033;-71
2022/12/26 10:57:07;;;;;;;5.90;1.77;;;;;;;10.04;77.37;101298.63;5040697;28;20033;-68
2022/12/26 10:59:48;;;;;;;8.55;1.90;;;;;;;10.01;77.27;101299.09;5047756;28;20059;-68
2022/12/26 11:02:29;;;;;;;6.95;1.33;;;;;;;9.92;76.36;101312.47;5049426;28;20037;-69
2022/12/26 11:05:05;;;;;;;8.88;2.00;;;;;;;9.86;76.49;101318.13;5045085;28;20336;-69
2022/12/26 11:07:49;;;;;;;10.75;1.70;;;;;;;9.87;77.20;101323.44;5038049;28;20040;-70
2022/12/26 11:10:25;;;;;;;8.30;1.58;;;;;;;9.89;76.83;101312.09;5046392;28;20153;-71
2022/12/26 11:12:53;;;;;;;7.85;2.03;;;;;;;9.87;75.75;101317.91;5040430;28;20033;-70
2022/12/26 11:15:24;;;;;;;10.38;1.98;;;;;;;9.85;75.38;101333.91;5045961;28;20037;-69
2022/12/26 11:17:52;;;;;;;13.43;2.47;;;;;;;9.72;74.90;101329.41;5039112;28;20112;-70
2022/12/26 11:20:24;;;;;;;9.57;1.98;;;;;;;9.76;74.94;101346.41;5048305;28;20029;-67
2022/12/26 11:22:56;;;;;;;13.38;2.53;;;;;;;9.80;74.89;101336.56;5048116;28;20137;-71
2022/12/26 11:25:33;;;;;;;13.35;2.63;;;;;;;9.84;74.53;101341.38;5046328;28;20044;-72
2022/12/26 11:28:22;;;;;;;10.55;2.80;;;;;;;9.81;74.58;101352.94;5047483;28;20393;-68
2022/12/26 11:30:47;;;;;;;14.80;2.60;;;;;;;9.82;74.19;101356.56;5037845;28;20108;-70
2022/12/26 11:33:26;;;;;;;10.43;2.70;;;;;;;9.80;73.63;101358.72;5050378;28;20029;-68
2022/12/26 11:36:13;;;;;;;11.40;2.80;;;;;;;9.70;73.81;101359.28;5051563;28;20566;-70
2022/12/26 11:38:58;;;;;;;10.02;2.88;;;;;;;9.56;73.53;101343.94;5049401;28;20486;-69
2022/12/26 11:41:33;;;;;;;11.93;2.50;;;;;;;9.53;72.60;101361.88;5052994;28;20047;-71
2022/12/26 11:44:03;;;;;;;11.00;2.50;;;;;;;9.57;72.91;101362.25;5050325;28;20132;-69
2022/12/26 11:46:36;;;;;;;12.07;2.70;;;;;;;9.61;72.99;101357.09;5052061;28;20033;-69
2022/12/26 11:49:03;;;;;;;10.38;2.67;;;;;;;9.62;72.58;101367.94;5046413;28;20502;-70
2022/12/26 11:51:35;;;;;;;9.88;2.55;;;;;;;9.68;72.62;101374.47;5049816;28;20045;-67
2022/12/26 11:54:19;;;;;;;12.77;2.77;;;;;;;9.76;73.38;101376.91;5047517;28;20144;-70
2022/12/26 11:56:45;;;;;;;14.82;4.57;;;;;;;9.75;71.19;101367.75;5045250;28;20345;-70
2022/12/26 11:59:18;;;;;;;9.55;2.20;;;;;;;9.71;71.70;101371.25;5046588;28;20451;-72
2022/12/26 12:01:44;;;;;;;9.63;2.35;;;;;;;9.75;71.63;101372.47;5042904;28;20036;-70
2022/12/26 12:04:09;;;;;;;9.90;2.67;;;;;;;9.75;70.84;101378.00;5051745;28;20028;-70
2022/12/26 12:06:54;;;;;;;8.95;2.33;;;;;;;9.71;71.83;101385.94;5049108;28;20140;-70
2022/12/26 12:09:37;;;;;;;10.77;2.20;;;;;;;9.71;71.46;101390.66;5037108;28;20021;-70
2022/12/26 12:12:29;;;;;;;8.00;2.28;;;;;;;9.75;71.95;101394.63;5049145;28;20487;-70
2022/12/26 12:15:13;;;;;;;9.00;1.92;;;;;;;9.72;70.82;101401.50;5052403;28;20033;-71
2022/12/26 12:17:54;;;;;;;7.22;2.05;;;;;;;9.76;70.85;101401.88;5044364;28;20021;-69
2022/12/26 12:20:51;;;;;;;10.02;2.00;;;;;;;9.81;71.68;101410.31;5051180;28;20416;-71
2022/12/26 12:23:38;;;;;;;7.63;1.90;;;;;;;9.84;71.94;101393.22;5047471;28;20460;-68
2022/12/26 12:26:25;;;;;;;12.52;2.28;;;;;;;9.80;70.97;101392.00;5046429;28;20108;-70
2022/12/26 12:29:05;;;;;;;8.82;2.85;;;;;;;9.78;70.92;101391.38;5047791;28;20044;-71
2022/12/26 12:31:52;;;;;;;5.93;2.17;;;;;;;9.77;71.20;101395.22;5049073;28;20017;-70
2022/12/26 12:34:33;;;;;;;11.48;2.53;;;;;;;9.79;70.80;101398.63;5050103;28;20039;-70
2022/12/26 12:37:15;;;;;;;8.88;2.20;;;;;;;9.71;70.25;101410.06;5049774;28;20039;-74
2022/12/26 12:39:59;;;;;;;10.38;2.85;;;;;;;9.72;70.62;101404.25;5042271;28;20035;-72
2022/12/26 12:42:41;;;;;;;12.95;2.30;;;;;;;9.62;68.38;101408.66;5044883;28;20036;-72
2022/12/26 12:45:27;;;;;;;;;;;;;;;9.78;71.62;101421.88;5045317;28;20523;-73
2022/12/26 12:48:24;;;;;;;7.63;1.40;;;;;;;9.65;68.79;101419.28;5049153;28;19935;-72
2022/12/26 12:51:00;;;;;;;5.72;1.52;;;;;;;9.55;67.28;101429.00;5047402;28;20049;-71
2022/12/26 12:54:00;;;;;;;8.82;1.75;;;;;;;9.59;68.25;101426.63;5045978;28;20906;-70
2022/12/26 12:56:36;;;;;;;4.30;1.35;;;;;;;9.48;66.41;101435.72;5041611;28;20075;-70
2022/12/26 12:59:18;;;;;;;3.92;1.27;;;;;;;9.50;67.13;101452.94;5045463;28;20491;-72
2022/12/26 13:01:49;;;;;;;8.07;1.75;;;;;;;9.50;66.46;101448.22;5044988;28;20474;-72
2022/12/26 13:04:42;;;;;;;7.97;1.40;;;;;;;9.47;66.92;101445.94;5047926;28;20033;-73
2022/12/26 13:07:18;;;;;;;4.68;1.63;;;;;;;9.42;66.81;101440.22;5044561;28;20116;-72
2022/12/26 13:09:53;;;;;;;5.68;1.60;;;;;;;9.46;67.33;101437.84;5028546;28;20029;-72
2022/12/26 13:12:25;;;;;;;6.88;1.70;;;;;;;9.39;66.02;101442.63;5032843;28;20029;-71
2022/12/26 13:15:01;;;;;;;2.55;1.40;;;;;;;9.37;67.04;101440.09;5030525;28;20092;-71
2022/12/26 13:17:59;;;;;;;7.50;1.83;;;;;;;9.40;67.18;101439.63;5046969;28;20344;-72
2022/12/26 13:20:33;;;;;;;5.95;2.00;;;;;;;9.33;66.37;101438.84;5045674;28;20107;-72
2022/12/26 13:26:06;;;;;;;7.50;1.50;;;;;;;9.31;66.53;101443.75;5036550;28;20087;-72
2022/12/26 13:28:38;;;;;;;7.85;1.83;;;;;;;9.34;66.13;101448.84;5042930;28;20048;-73
2022/12/26 13:31:03;;;;;;;6.47;2.03;;;;;;;9.35;66.38;101450.53;5045962;28;20124;-71
2022/12/26 13:33:30;;;;;;;6.90;1.75;;;;;;;9.36;66.29;101457.78;5048327;28;20107;-71
2022/12/26 13:36:02;;;;;;;9.02;1.80;;;;;;;9.30;65.56;101459.53;5048311;28;20039;-72
2022/12/26 13:39:03;;;;;;;4.60;2.00;;;;;;;9.34;67.45;101459.94;5044121;28;20056;-70
2022/12/26 13:44:16;;;;;;;5.90;2.22;;;;;;;9.26;66.27;101463.00;5045191;28;20058;-71
2022/12/26 13:46:43;;;;;;;4.20;1.70;;;;;;;9.21;64.83;101462.84;5042779;28;20055;-71
2022/12/26 13:49:28;;;;;;;5.28;1.90;;;;;;;9.29;65.97;101470.88;5048203;28;20032;-71
2022/12/26 13:52:18;;;;;;;4.80;1.48;;;;;;;9.21;64.82;101471.16;5046640;28;20136;-71
2022/12/26 13:54:46;;;;;;;6.90;1.67;;;;;;;9.22;65.68;101479.25;5027764;28;20638;-72
2022/12/26 13:57:20;;;;;;;5.43;1.45;;;;;;;9.15;64.40;101486.75;5047005;28;20041;-72
2022/12/26 13:59:57;;;;;;;6.10;1.50;;;;;;;9.16;65.11;101490.41;5045578;28;20033;-70
2022/12/26 14:02:45;;;;;;;3.55;1.38;;;;;;;9.18;66.12;101483.53;5033303;28;20039;-72